Time;durP1;ratioP1;P1;durP2;ratioP2;P2;SDS_P1;SDS_P2;PMS_P1;PMS_P2;Temp;Humidity;BMP_temperature;BMP_pressure;BME280_temperature;BME280_humidity;BME280_pressure;Samples;Min_cycle;Max_cycle;Signal;HPM_P1;HPM_P2
2022/05/22 00:01:24;;;;;;;4.87;4.50;;;20.30;75.40;;;;;;6204537;28;20666;-64
2022/05/22 00:04:27;;;;;;;5.47;5.10;;;20.30;75.90;;;;;;6204365;28;20296;-64
2022/05/22 00:07:30;;;;;;;6.50;4.67;;;20.20;76.30;;;;;;6203637;28;20688;-64
2022/05/22 00:10:35;;;;;;;4.80;4.37;;;20.10;76.70;;;;;;6204212;28;20225;-64
2022/05/22 00:13:38;;;;;;;6.20;3.83;;;20.00;76.90;;;;;;6203820;28;20241;-64
2022/05/22 00:16:46;;;;;;;7.97;3.97;;;19.90;76.90;;;;;;6203751;28;20658;-64
2022/05/22 00:19:50;;;;;;;4.53;4.13;;;19.90;77.40;;;;;;6203496;28;20248;-64
2022/05/22 00:22:53;;;;;;;7.23;3.97;;;19.80;77.80;;;;;;6203764;28;20233;-64
2022/05/22 00:25:58;;;;;;;4.17;3.87;;;19.80;77.90;;;;;;6202854;28;20261;-64
2022/05/22 00:29:01;;;;;;;5.10;4.70;;;19.80;78.00;;;;;;6203920;28;20392;-63
2022/05/22 00:32:06;;;;;;;3.83;3.33;;;19.70;78.20;;;;;;6203129;28;20579;-64
2022/05/22 00:35:10;;;;;;;5.20;4.30;;;19.70;78.60;;;;;;6203422;28;20316;-63
2022/05/22 00:38:13;;;;;;;4.50;4.03;;;19.70;78.80;;;;;;6202903;28;20238;-64
2022/05/22 00:41:18;;;;;;;4.53;4.17;;;19.60;78.90;;;;;;6203206;28;20240;-64
2022/05/22 00:44:22;;;;;;;4.20;3.80;;;19.60;78.80;;;;;;6202816;28;20244;-64
2022/05/22 00:47:25;;;;;;;4.30;3.90;;;19.50;78.90;;;;;;6203049;28;20234;-66
2022/05/22 00:50:29;;;;;;;4.10;3.70;;;19.40;79.00;;;;;;6203536;28;20230;-65
2022/05/22 00:53:34;;;;;;;4.80;3.50;;;19.40;79.00;;;;;;6203009;28;20225;-65
2022/05/22 00:56:43;;;;;;;3.83;3.53;;;19.30;79.10;;;;;;6204210;28;20245;-64
2022/05/22 00:59:50;;;;;;;4.63;4.23;;;19.30;79.60;;;;;;6204062;28;20242;-64
2022/05/22 01:06:24;;;;;;;4.00;3.70;;;19.20;80.00;;;;;;6203578;28;20234;-65
2022/05/22 01:09:27;;;;;;;5.20;3.90;;;19.10;80.00;;;;;;6202956;28;20288;-64
2022/05/22 01:12:32;;;;;;;5.90;3.90;;;19.00;80.80;;;;;;6203502;28;20205;-64
2022/05/22 01:15:35;;;;;;;4.00;3.40;;;18.90;80.30;;;;;;6202596;28;20341;-65
2022/05/22 01:18:43;;;;;;;4.30;3.60;;;18.80;80.80;;;;;;6202334;28;20268;-64
2022/05/22 01:21:53;;;;;;;3.90;3.00;;;18.70;81.10;;;;;;6202168;28;20226;-64
2022/05/22 01:24:57;;;;;;;3.50;3.20;;;18.60;81.70;;;;;;6202275;28;20233;-65
2022/05/22 01:28:02;;;;;;;3.50;3.20;;;18.50;82.40;;;;;;6202239;28;20229;-64
2022/05/22 01:31:06;;;;;;;3.60;3.30;;;18.50;82.90;;;;;;6202280;28;20488;-64
2022/05/22 01:34:09;;;;;;;4.00;3.60;;;18.40;82.90;;;;;;6202210;28;20229;-64
2022/05/22 01:37:13;;;;;;;3.47;3.20;;;18.40;82.90;;;;;;6201681;28;20245;-64
2022/05/22 01:40:19;;;;;;;3.30;3.00;;;18.40;82.80;;;;;;6201902;28;20240;-64
2022/05/22 01:43:22;;;;;;;3.97;3.50;;;18.30;83.00;;;;;;6202046;28;20226;-64
2022/05/22 01:46:26;;;;;;;4.43;3.20;;;18.30;83.40;;;;;;6201832;28;20473;-64
2022/05/22 01:49:29;;;;;;;4.03;3.10;;;18.30;83.30;;;;;;6201854;28;20240;-64
2022/05/22 01:52:33;;;;;;;4.30;3.40;;;18.20;83.20;;;;;;6197551;28;20243;-64
2022/05/22 01:55:37;;;;;;;3.17;2.97;;;18.20;83.20;;;;;;6202003;28;20480;-64
2022/05/22 01:58:40;;;;;;;5.00;3.43;;;18.20;83.20;;;;;;6201725;28;20234;-65
2022/05/22 02:01:43;;;;;;;3.60;2.90;;;18.20;83.20;;;;;;6201575;28;20468;-65
2022/05/22 02:04:46;;;;;;;3.43;3.17;;;18.10;83.10;;;;;;6201881;28;20497;-65
2022/05/22 02:11:12;;;;;;;3.40;2.90;;;18.10;83.10;;;;;;6201720;28;20492;-66
2022/05/22 02:14:15;;;;;;;3.30;3.00;;;18.00;83.00;;;;;;6201174;28;20809;-62
2022/05/22 02:17:18;;;;;;;2.93;2.73;;;18.00;83.00;;;;;;6200288;28;20472;-64
2022/05/22 02:20:21;;;;;;;3.90;3.30;;;17.90;84.20;;;;;;6198208;28;20560;-65
2022/05/22 02:23:26;;;;;;;3.20;2.60;;;17.90;84.40;;;;;;6197097;28;20477;-65
2022/05/22 02:26:29;;;;;;;3.27;2.70;;;17.90;84.20;;;;;;6199548;28;20491;-65
2022/05/22 02:29:32;;;;;;;3.13;2.93;;;17.80;84.30;;;;;;6200743;28;20483;-64
2022/05/22 02:32:37;;;;;;;5.20;3.30;;;17.80;85.80;;;;;;6200223;28;20529;-64
2022/05/22 02:35:40;;;;;;;2.97;2.70;;;17.90;86.10;;;;;;6199694;28;20480;-64
2022/05/22 02:38:45;;;;;;;3.90;3.60;;;17.90;85.60;;;;;;6199999;28;20477;-64
2022/05/22 02:41:48;;;;;;;3.27;3.00;;;17.90;85.30;;;;;;6200343;28;20237;-64
2022/05/22 02:44:51;;;;;;;3.97;3.57;;;17.80;85.20;;;;;;6200314;28;20469;-65
2022/05/22 02:47:55;;;;;;;2.83;2.63;;;17.90;85.00;;;;;;6202871;28;20493;-64
2022/05/22 02:50:58;;;;;;;3.03;2.60;;;17.90;84.80;;;;;;6199445;28;20469;-64
2022/05/22 02:54:03;;;;;;;3.00;2.70;;;17.90;84.70;;;;;;6199312;28;20473;-65
2022/05/22 02:57:07;;;;;;;3.33;3.03;;;18.00;84.80;;;;;;6188805;28;20234;-65
2022/05/22 03:00:15;;;;;;;3.40;3.07;;;18.00;84.90;;;;;;6197321;28;20477;-63
2022/05/22 03:03:18;;;;;;;3.97;3.67;;;18.00;85.10;;;;;;6202169;28;20973;-63
2022/05/22 03:06:39;;;;;;;3.60;3.30;;;18.00;84.70;;;;;;6198360;28;20496;-64
2022/05/22 03:09:46;;;;;;;3.80;3.50;;;18.00;84.80;;;;;;6197987;28;20472;-64
2022/05/22 03:12:50;;;;;;;3.40;2.93;;;18.10;84.90;;;;;;6196970;28;20473;-63
2022/05/22 03:15:53;;;;;;;3.67;3.27;;;18.10;84.80;;;;;;6200318;28;20245;-63
2022/05/22 03:18:56;;;;;;;3.13;2.93;;;18.10;85.10;;;;;;6202036;28;20564;-64
2022/05/22 03:21:59;;;;;;;3.57;2.77;;;18.20;85.20;;;;;;6206756;28;20228;-65
2022/05/22 03:25:05;;;;;;;2.80;2.60;;;18.30;85.00;;;;;;6204323;28;20481;-64
2022/05/22 03:28:08;;;;;;;3.30;3.00;;;18.30;84.70;;;;;;6204522;28;20230;-64
2022/05/22 03:31:11;;;;;;;3.77;3.47;;;18.30;84.60;;;;;;6204592;28;20230;-61
2022/05/22 03:34:15;;;;;;;3.97;3.33;;;18.30;84.20;;;;;;6204304;28;20229;-62
2022/05/22 03:37:18;;;;;;;4.03;3.73;;;18.40;84.20;;;;;;6204288;28;20487;-64
2022/05/22 03:40:23;;;;;;;3.40;2.93;;;18.40;84.00;;;;;;6204523;28;20237;-65
2022/05/22 03:43:26;;;;;;;4.80;3.13;;;18.50;83.60;;;;;;6204291;28;20773;-65
2022/05/22 03:46:29;;;;;;;3.33;3.13;;;18.50;83.50;;;;;;6204034;28;20542;-66
2022/05/22 03:49:33;;;;;;;4.23;3.20;;;18.60;83.60;;;;;;6203864;28;20236;-64
2022/05/22 03:52:38;;;;;;;4.10;3.33;;;18.60;83.60;;;;;;6203213;28;20948;-62
2022/05/22 03:55:43;;;;;;;3.53;3.30;;;18.70;83.40;;;;;;6202940;28;20248;-63
2022/05/22 03:58:47;;;;;;;3.40;3.10;;;18.70;83.00;;;;;;6198485;28;20253;-65
2022/05/22 04:01:50;;;;;;;3.80;3.50;;;18.70;82.60;;;;;;6202125;28;20233;-66
2022/05/22 04:04:53;;;;;;;4.03;3.63;;;18.70;82.60;;;;;;6202263;28;20551;-65
2022/05/22 04:07:56;;;;;;;3.30;3.00;;;18.70;82.20;;;;;;6202648;28;20574;-64
2022/05/22 04:11:06;;;;;;;3.33;3.13;;;18.80;82.30;;;;;;6202607;28;20692;-64
2022/05/22 04:14:10;;;;;;;4.00;3.60;;;18.80;82.50;;;;;;6203053;28;20694;-62
2022/05/22 04:17:13;;;;;;;3.50;3.20;;;18.90;82.60;;;;;;6203444;28;20322;-62
2022/05/22 04:20:18;;;;;;;3.20;3.00;;;19.00;82.40;;;;;;6202616;28;20248;-64
2022/05/22 04:26:44;;;;;;;3.90;3.50;;;19.10;81.90;;;;;;6201690;28;20242;-65
2022/05/22 04:29:47;;;;;;;4.03;3.73;;;19.20;81.50;;;;;;6201498;28;20242;-66
2022/05/22 04:32:52;;;;;;;5.10;2.97;;;19.20;81.00;;;;;;6202403;28;20694;-66
2022/05/22 04:35:55;;;;;;;4.23;3.40;;;19.30;81.10;;;;;;6201936;28;20569;-64
2022/05/22 04:38:58;;;;;;;3.60;3.30;;;19.30;81.40;;;;;;6201613;28;20226;-62
2022/05/22 04:42:04;;;;;;;4.00;3.60;;;19.30;80.20;;;;;;6201638;28;20237;-62
2022/05/22 04:45:09;;;;;;;3.37;3.17;;;19.30;80.20;;;;;;6201411;28;20241;-62
2022/05/22 04:48:12;;;;;;;3.93;3.63;;;19.40;79.70;;;;;;6204996;28;20572;-60
2022/05/22 04:51:15;;;;;;;4.00;3.70;;;19.50;79.50;;;;;;6205268;28;20312;-61
2022/05/22 04:54:18;;;;;;;4.23;3.83;;;19.30;78.80;;;;;;6203330;28;20597;-64
2022/05/22 04:57:23;;;;;;;3.87;3.57;;;19.30;78.30;;;;;;6202568;28;20674;-62
2022/05/22 05:00:26;;;;;;;3.50;3.20;;;19.30;77.10;;;;;;6202336;28;20236;-61
2022/05/22 05:03:29;;;;;;;4.00;3.60;;;19.30;76.70;;;;;;6202035;28;20232;-62
2022/05/22 05:06:32;;;;;;;4.97;3.83;;;19.30;76.80;;;;;;6202205;28;20677;-61
2022/05/22 05:09:36;;;;;;;3.53;3.23;;;19.10;76.90;;;;;;6202354;28;20618;-61
2022/05/22 05:12:42;;;;;;;4.13;3.50;;;19.20;77.20;;;;;;6202354;28;20212;-62
2022/05/22 05:15:47;;;;;;;3.50;3.30;;;19.20;76.40;;;;;;6202026;28;20589;-62
2022/05/22 05:18:50;;;;;;;3.70;2.83;;;19.30;75.30;;;;;;6202385;28;20229;-66
2022/05/22 05:21:57;;;;;;;3.77;3.20;;;19.40;73.70;;;;;;6202229;28;20229;-67
2022/05/22 05:25:00;;;;;;;3.67;2.93;;;19.60;73.10;;;;;;6201632;28;20231;-66
2022/05/22 05:28:05;;;;;;;2.80;2.40;;;20.00;71.30;;;;;;6201771;28;20551;-67
2022/05/22 05:31:08;;;;;;;8.83;3.17;;;20.40;70.20;;;;;;6202815;28;20565;-64
2022/05/22 05:34:12;;;;;;;2.93;2.57;;;20.60;67.70;;;;;;6202241;28;20229;-64
2022/05/22 05:37:16;;;;;;;4.40;2.40;;;20.60;67.50;;;;;;6201430;28;20229;-64
2022/05/22 05:40:20;;;;;;;3.40;3.10;;;20.70;65.90;;;;;;6201602;28;20233;-64
2022/05/22 05:43:24;;;;;;;5.60;3.97;;;20.70;67.10;;;;;;6201279;28;20572;-64
2022/05/22 05:46:29;;;;;;;5.17;4.73;;;20.60;70.30;;;;;;6201509;28;20225;-64
2022/05/22 05:49:32;;;;;;;4.67;4.27;;;20.50;73.90;;;;;;6201234;28;20613;-64
2022/05/22 05:52:35;;;;;;;5.57;4.90;;;20.70;73.30;;;;;;6201730;28;20234;-64
2022/05/22 05:55:38;;;;;;;4.00;3.70;;;21.20;74.00;;;;;;6201322;28;20256;-64
2022/05/22 05:59:03;;;;;;;4.43;4.10;;;21.50;71.30;;;;;;6201502;28;20230;-64
2022/05/22 06:02:07;;;;;;;5.17;4.67;;;21.80;71.10;;;;;;6202013;28;20244;-64
2022/05/22 06:05:11;;;;;;;4.80;4.40;;;21.90;71.40;;;;;;6200849;28;20240;-62
2022/05/22 06:08:14;;;;;;;5.00;4.47;;;21.90;71.80;;;;;;6201604;28;20336;-63
2022/05/22 06:11:19;;;;;;;4.23;3.83;;;22.10;69.90;;;;;;6201744;28;20229;-65
2022/05/22 06:14:30;;;;;;;5.17;3.90;;;22.30;67.40;;;;;;6200892;28;20677;-65
2022/05/22 06:17:36;;;;;;;3.70;3.40;;;21.90;66.60;;;;;;6200969;28;20580;-62
2022/05/22 06:20:39;;;;;;;3.23;3.03;;;21.60;67.00;;;;;;6201145;28;20250;-63
2022/05/22 06:23:43;;;;;;;2.90;2.70;;;21.40;67.10;;;;;;6201661;28;20230;-64
2022/05/22 06:26:46;;;;;;;9.63;3.40;;;21.30;65.50;;;;;;6202895;28;20689;-67
2022/05/22 06:29:51;;;;;;;2.63;2.43;;;20.90;66.20;;;;;;6202134;28;20736;-67
2022/05/22 06:32:54;;;;;;;2.80;2.60;;;20.70;66.40;;;;;;6201056;28;20263;-66
2022/05/22 06:35:58;;;;;;;2.50;2.30;;;20.70;67.30;;;;;;6200846;28;20241;-66
2022/05/22 06:42:25;;;;;;;2.63;2.43;;;20.60;67.70;;;;;;6200803;28;20949;-64
2022/05/22 06:45:30;;;;;;;3.30;2.97;;;20.80;67.50;;;;;;6200807;28;20233;-63
2022/05/22 06:48:33;;;;;;;2.37;2.23;;;21.00;66.60;;;;;;6200926;28;20213;-63
2022/05/22 06:51:36;;;;;;;3.30;3.00;;;21.00;66.90;;;;;;6200924;28;20626;-65
2022/05/22 06:54:40;;;;;;;3.60;3.10;;;21.00;66.00;;;;;;6205124;28;20213;-64
2022/05/22 06:57:44;;;;;;;2.43;2.23;;;21.00;65.40;;;;;;6205854;28;20221;-64
2022/05/22 07:00:53;;;;;;;2.77;2.50;;;21.20;64.70;;;;;;6205286;28;26030;-64
2022/05/22 07:03:56;;;;;;;3.10;2.67;;;22.50;64.00;;;;;;6205669;28;20226;-64
2022/05/22 07:06:59;;;;;;;2.53;2.33;;;24.10;59.90;;;;;;6204870;28;20990;-64
2022/05/22 07:10:03;;;;;;;2.60;2.40;;;25.70;55.90;;;;;;6195974;28;20229;-65
2022/05/22 07:13:06;;;;;;;2.43;2.13;;;25.50;55.00;;;;;;6205392;28;20233;-65
2022/05/22 07:16:10;;;;;;;3.83;2.33;;;26.00;54.20;;;;;;6205922;28;20560;-65
2022/05/22 07:19:26;;;;;;;3.43;3.17;;;26.40;52.00;;;;;;6205227;28;20248;-65
2022/05/22 07:22:30;;;;;;;2.70;2.13;;;27.50;50.10;;;;;;6204917;28;20240;-65
2022/05/22 07:25:33;;;;;;;2.97;2.50;;;27.50;49.80;;;;;;6204984;28;20247;-66
2022/05/22 07:28:36;;;;;;;2.43;2.23;;;26.90;49.60;;;;;;6205788;28;20243;-66
2022/05/22 07:31:42;;;;;;;3.00;2.70;;;27.00;49.50;;;;;;6205822;28;20243;-68
2022/05/22 07:34:48;;;;;;;3.10;2.30;;;26.80;49.20;;;;;;6205350;28;20239;-65
2022/05/22 07:37:56;;;;;;;2.80;2.20;;;27.40;49.20;;;;;;6205474;28;20233;-66
2022/05/22 07:41:00;;;;;;;4.83;2.30;;;28.80;46.50;;;;;;6205442;28;20229;-63
2022/05/22 07:44:03;;;;;;;2.53;2.13;;;30.80;42.70;;;;;;6205096;28;20249;-66
2022/05/22 07:47:08;;;;;;;2.63;2.20;;;31.90;41.30;;;;;;6203543;28;20700;-67
2022/05/22 07:50:17;;;;;;;1.85;1.60;;;33.50;38.10;;;;;;6203772;28;20560;-65
2022/05/22 07:53:21;;;;;;;3.13;2.33;;;32.90;36.90;;;;;;6203109;28;20221;-66
2022/05/22 07:56:24;;;;;;;4.18;2.33;;;31.90;37.00;;;;;;6203964;28;20232;-66
2022/05/22 07:59:27;;;;;;;2.70;2.50;;;30.90;38.70;;;;;;6202467;28;20225;-65
2022/05/22 08:02:31;;;;;;;3.87;1.80;;;29.50;40.30;;;;;;6202984;28;20541;-65
2022/05/22 08:05:35;;;;;;;3.60;2.43;;;28.60;41.80;;;;;;6201863;28;20229;-65
2022/05/22 08:08:39;;;;;;;3.40;2.10;;;27.00;43.60;;;;;;6202196;28;20304;-65
2022/05/22 08:11:46;;;;;;;2.40;2.20;;;25.80;46.20;;;;;;6202468;28;20303;-64
2022/05/22 08:14:49;;;;;;;3.07;2.20;;;25.30;47.60;;;;;;6192493;28;20225;-65
2022/05/22 08:17:53;;;;;;;4.03;2.10;;;25.30;47.00;;;;;;6202873;28;20225;-65
2022/05/22 08:20:57;;;;;;;3.43;2.27;;;24.80;47.80;;;;;;6203032;28;20241;-64
2022/05/22 08:24:00;;;;;;;3.73;2.00;;;24.20;48.40;;;;;;6202020;28;20224;-67
2022/05/22 08:27:04;;;;;;;2.47;2.27;;;24.10;49.30;;;;;;6201342;28;20233;-66
2022/05/22 08:30:08;;;;;;;4.63;2.50;;;24.30;49.40;;;;;;6201403;28;20221;-66
2022/05/22 08:33:14;;;;;;;2.97;2.00;;;24.40;49.50;;;;;;6213283;28;20218;-66
2022/05/22 08:36:17;;;;;;;3.13;2.00;;;24.40;48.60;;;;;;6216850;28;20225;-66
2022/05/22 08:39:20;;;;;;;4.40;2.27;;;24.90;47.70;;;;;;6216910;28;20228;-65
2022/05/22 08:42:36;;;;;;;2.17;2.00;;;24.90;48.70;;;;;;6213044;28;20225;-62
2022/05/22 08:45:42;;;;;;;2.40;2.20;;;24.90;48.80;;;;;;6211090;28;20225;-65
2022/05/22 08:48:52;;;;;;;3.53;2.43;;;25.00;49.50;;;;;;6214235;28;20252;-64
2022/05/22 08:52:02;;;;;;;2.80;2.57;;;24.20;49.60;;;;;;6212694;28;20625;-64
2022/05/22 08:55:10;;;;;;;2.60;2.40;;;23.80;50.00;;;;;;6214082;28;20559;-66
2022/05/22 09:01:46;;;;;;;2.63;2.33;;;23.90;50.00;;;;;;6205845;28;20249;-65
2022/05/22 09:04:57;;;;;;;5.13;3.00;;;24.20;50.00;;;;;;6202444;28;20578;-67
2022/05/22 09:08:05;;;;;;;2.67;2.47;;;24.50;50.20;;;;;;6203222;28;20241;-66
2022/05/22 09:11:13;;;;;;;4.50;2.60;;;25.00;48.70;;;;;;6202716;28;20700;-67
2022/05/22 09:14:23;;;;;;;3.80;2.70;;;25.50;47.80;;;;;;6203191;28;20260;-66
2022/05/22 09:17:32;;;;;;;3.40;2.70;;;25.40;47.50;;;;;;6202299;28;20229;-65
2022/05/22 09:20:44;;;;;;;4.30;3.07;;;25.20;48.10;;;;;;6202562;28;20238;-65
2022/05/22 09:24:06;;;;;;;3.03;2.83;;;25.30;48.70;;;;;;6202747;28;20693;-65
2022/05/22 09:27:12;;;;;;;3.43;3.07;;;25.40;48.20;;;;;;6202532;28;20241;-66
2022/05/22 09:30:22;;;;;;;3.13;2.60;;;25.00;49.00;;;;;;6202829;28;20728;-65
2022/05/22 09:33:35;;;;;;;3.20;2.90;;;24.80;50.30;;;;;;6202520;28;20266;-65
2022/05/22 09:36:54;;;;;;;4.43;3.13;;;24.40;50.80;;;;;;6202246;28;20681;-64
2022/05/22 09:40:18;;;;;;;2.80;2.47;;;24.60;51.40;;;;;;6202400;28;20305;-65
2022/05/22 09:43:48;;;;;;;4.33;3.13;;;25.00;51.40;;;;;;6202033;28;20653;-65
2022/05/22 09:47:11;;;;;;;3.53;2.87;;;25.40;51.10;;;;;;6202408;28;20258;-64
2022/05/22 09:50:23;;;;;;;4.07;3.50;;;25.00;49.80;;;;;;6201813;28;20709;-65
2022/05/22 09:53:42;;;;;;;3.47;3.17;;;24.90;50.50;;;;;;6202596;28;20674;-64
2022/05/22 09:57:19;;;;;;;6.73;3.20;;;25.20;50.40;;;;;;6202002;28;20243;-65
2022/05/22 10:00:27;;;;;;;3.80;3.43;;;24.60;50.50;;;;;;6201832;28;20233;-63
2022/05/22 10:03:41;;;;;;;5.00;3.70;;;24.50;51.30;;;;;;6201655;28;20269;-65
2022/05/22 10:06:51;;;;;;;4.33;3.57;;;24.80;51.10;;;;;;6203065;28;20218;-65
2022/05/22 10:10:03;;;;;;;3.87;3.57;;;25.10;50.10;;;;;;6208736;28;20316;-65
2022/05/22 10:13:14;;;;;;;3.90;3.30;;;24.60;50.80;;;;;;6202302;28;20236;-65
2022/05/22 10:16:28;;;;;;;3.57;2.90;;;24.50;50.90;;;;;;6201255;28;20230;-66
2022/05/22 10:19:42;;;;;;;4.23;3.70;;;24.70;51.00;;;;;;6198622;28;20232;-66
2022/05/22 10:22:57;;;;;;;4.33;4.03;;;24.90;50.70;;;;;;6199017;28;20304;-66
2022/05/22 10:26:10;;;;;;;3.73;3.43;;;25.00;51.20;;;;;;6199828;28;20234;-66
2022/05/22 10:29:22;;;;;;;4.10;3.57;;;25.10;51.30;;;;;;6201548;28;20232;-65
2022/05/22 10:32:31;;;;;;;4.13;3.80;;;25.20;50.60;;;;;;6202887;28;20557;-65
2022/05/22 10:35:40;;;;;;;4.70;3.50;;;25.10;50.50;;;;;;6205245;28;20259;-65
2022/05/22 10:38:48;;;;;;;3.20;2.90;;;24.90;51.40;;;;;;6203804;28;20225;-65
2022/05/22 10:45:22;;;;;;;3.90;3.53;;;24.90;52.20;;;;;;6204219;28;20236;-64
2022/05/22 10:48:27;;;;;;;4.30;3.97;;;25.10;51.50;;;;;;6205252;28;20222;-65
2022/05/22 10:51:30;;;;;;;4.13;3.70;;;25.10;52.00;;;;;;6205824;28;20217;-65
2022/05/22 10:54:35;;;;;;;4.20;3.07;;;25.10;51.50;;;;;;6202922;28;20209;-66
2022/05/22 10:57:40;;;;;;;4.00;3.70;;;25.30;51.60;;;;;;6203005;28;20205;-65
2022/05/22 11:00:52;;;;;;;5.57;3.70;;;25.50;51.20;;;;;;6205597;28;20201;-67
2022/05/22 11:04:05;;;;;;;7.03;3.67;;;25.60;51.50;;;;;;6206182;28;20240;-66
2022/05/22 11:07:09;;;;;;;3.70;3.40;;;25.40;51.60;;;;;;6205936;28;20326;-65
2022/05/22 11:10:17;;;;;;;4.00;3.70;;;25.40;51.80;;;;;;6206617;28;20240;-66
2022/05/22 11:13:25;;;;;;;4.67;4.27;;;25.60;52.40;;;;;;6205477;28;20253;-65
2022/05/22 11:16:29;;;;;;;4.37;4.07;;;25.60;51.70;;;;;;6205499;28;20233;-67
2022/05/22 11:19:33;;;;;;;4.33;3.93;;;25.80;51.40;;;;;;6213356;28;20236;-66
2022/05/22 11:22:42;;;;;;;3.87;3.57;;;26.00;51.50;;;;;;6203835;28;20239;-64
2022/05/22 11:25:53;;;;;;;4.70;3.53;;;25.90;51.30;;;;;;6217342;28;20237;-66
2022/05/22 11:29:10;;;;;;;4.23;3.80;;;25.90;51.40;;;;;;6214596;28;20226;-65
2022/05/22 11:32:42;;;;;;;4.57;4.07;;;25.50;52.40;;;;;;6212897;28;20232;-64
2022/05/22 11:35:54;;;;;;;4.47;4.07;;;25.50;52.60;;;;;;6210077;28;20224;-64
2022/05/22 11:39:16;;;;;;;3.57;3.37;;;25.60;52.50;;;;;;6215968;28;20228;-64
2022/05/22 11:42:25;;;;;;;3.97;3.57;;;25.80;51.80;;;;;;6208893;28;20240;-64
2022/05/22 11:45:41;;;;;;;3.60;3.30;;;26.10;51.90;;;;;;6204220;28;20554;-64
2022/05/22 11:49:05;;;;;;;4.40;3.53;;;25.60;51.80;;;;;;6204695;28;20618;-64
2022/05/22 11:56:06;;;;;;;3.80;3.50;;;25.50;52.80;;;;;;6206734;28;20680;-64
2022/05/22 11:59:21;;;;;;;4.57;3.90;;;25.60;52.30;;;;;;6214025;28;20225;-64
2022/05/22 12:02:36;;;;;;;4.40;3.53;;;25.20;53.10;;;;;;6209212;28;20233;-65
2022/05/22 12:05:52;;;;;;;4.20;3.80;;;25.30;52.90;;;;;;6204424;28;20256;-64
2022/05/22 12:09:10;;;;;;;5.60;3.53;;;25.50;52.50;;;;;;6204237;28;20562;-64
2022/05/22 12:12:23;;;;;;;4.20;3.87;;;25.50;53.00;;;;;;6205382;28;20229;-65
2022/05/22 12:15:37;;;;;;;4.03;3.73;;;25.40;52.50;;;;;;6204720;28;20233;-65
2022/05/22 12:18:59;;;;;;;5.93;3.87;;;25.50;52.70;;;;;;6204710;28;20215;-64
2022/05/22 12:22:13;;;;;;;3.40;3.10;;;25.60;52.20;;;;;;6204155;28;20249;-64
2022/05/22 12:25:20;;;;;;;4.30;3.97;;;25.40;52.50;;;;;;6193621;28;20242;-64
2022/05/22 12:28:41;;;;;;;4.10;3.43;;;25.30;53.20;;;;;;6204388;28;20248;-65
2022/05/22 12:31:51;;;;;;;4.07;3.77;;;25.40;53.20;;;;;;6204182;28;20670;-65
2022/05/22 12:34:59;;;;;;;3.73;3.43;;;25.10;53.40;;;;;;6204764;28;20673;-63
2022/05/22 12:38:04;;;;;;;3.90;3.50;;;25.20;53.70;;;;;;6203862;28;20229;-63
2022/05/22 12:41:17;;;;;;;4.43;4.03;;;25.30;53.50;;;;;;6203306;28;20364;-63
2022/05/22 12:44:21;;;;;;;4.20;3.80;;;25.30;53.10;;;;;;6202127;28;20526;-63
2022/05/22 12:47:35;;;;;;;4.50;3.30;;;25.40;53.30;;;;;;6201794;28;20244;-63
2022/05/22 12:50:47;;;;;;;3.83;3.53;;;25.30;53.30;;;;;;6201235;28;20229;-65
2022/05/22 12:53:52;;;;;;;3.77;3.47;;;25.20;53.30;;;;;;6201930;28;20229;-64
2022/05/22 12:57:12;;;;;;;3.63;3.33;;;25.30;53.50;;;;;;6201420;28;20538;-64
2022/05/22 13:00:30;;;;;;;3.60;3.30;;;25.30;53.90;;;;;;6202412;28;20244;-64
2022/05/22 13:03:37;;;;;;;4.20;3.40;;;24.90;54.10;;;;;;6202737;28;20229;-65
2022/05/22 13:06:50;;;;;;;4.73;3.60;;;25.20;54.00;;;;;;6202216;28;20709;-65
2022/05/22 13:09:54;;;;;;;3.50;3.23;;;25.50;53.80;;;;;;6203244;28;20225;-65
2022/05/22 13:13:01;;;;;;;5.47;3.83;;;25.60;53.60;;;;;;6209075;28;20247;-64
2022/05/22 13:16:07;;;;;;;4.63;4.20;;;25.60;53.40;;;;;;6205288;28;20229;-64
2022/05/22 13:19:17;;;;;;;4.10;3.70;;;25.30;53.60;;;;;;6202802;28;20233;-65
2022/05/22 13:22:30;;;;;;;5.77;4.33;;;25.50;54.30;;;;;;6202323;28;20238;-65
2022/05/22 13:25:48;;;;;;;6.27;3.80;;;25.60;53.90;;;;;;6201801;28;20321;-65
2022/05/22 13:28:56;;;;;;;4.80;4.40;;;25.60;53.90;;;;;;6197553;28;20236;-64
2022/05/22 13:32:01;;;;;;;4.60;4.20;;;25.80;53.20;;;;;;6201759;28;20234;-65
2022/05/22 13:35:14;;;;;;;4.27;3.97;;;25.50;53.60;;;;;;6201747;28;20565;-64
2022/05/22 13:38:19;;;;;;;4.10;3.80;;;25.40;53.90;;;;;;6201500;28;20240;-65
2022/05/22 13:42:02;;;;;;;4.33;3.93;;;25.40;54.40;;;;;;6200616;28;20243;-65
2022/05/22 13:45:23;;;;;;;4.07;3.70;;;25.30;54.60;;;;;;6201866;28;20669;-65
2022/05/22 13:48:57;;;;;;;4.50;4.20;;;25.30;54.50;;;;;;6201847;28;20237;-65
2022/05/22 13:55:28;;;;;;;4.27;3.97;;;25.40;54.70;;;;;;6201271;28;20233;-65
2022/05/22 13:58:34;;;;;;;5.30;3.93;;;25.30;55.00;;;;;;6201529;28;20225;-64
2022/05/22 14:01:42;;;;;;;5.50;4.93;;;25.50;54.90;;;;;;6201535;28;20225;-65
2022/05/22 14:04:47;;;;;;;4.17;3.80;;;25.70;55.10;;;;;;6200679;28;20275;-64
2022/05/22 14:07:53;;;;;;;4.47;4.03;;;25.80;54.20;;;;;;6201419;28;20243;-64
2022/05/22 14:11:01;;;;;;;5.63;4.17;;;25.80;54.20;;;;;;6201372;28;20237;-65
2022/05/22 14:14:08;;;;;;;6.07;4.20;;;25.80;54.00;;;;;;6201584;28;20229;-64
2022/05/22 14:17:12;;;;;;;5.70;3.80;;;25.80;54.40;;;;;;6200017;28;20236;-64
2022/05/22 14:20:19;;;;;;;6.00;4.40;;;25.80;54.40;;;;;;6201227;28;20550;-64
2022/05/22 14:23:27;;;;;;;4.00;3.70;;;25.70;54.80;;;;;;6201072;28;20229;-65
2022/05/22 14:26:32;;;;;;;4.90;4.50;;;25.60;55.10;;;;;;6200855;28;20245;-65
2022/05/22 14:29:36;;;;;;;4.50;4.10;;;25.50;55.40;;;;;;6200947;28;20225;-65
2022/05/22 14:32:39;;;;;;;4.77;4.20;;;25.70;55.20;;;;;;6201202;28;20268;-67
2022/05/22 14:35:45;;;;;;;4.57;4.17;;;25.80;54.40;;;;;;6186923;28;20244;-65
2022/05/22 14:38:50;;;;;;;5.27;4.87;;;25.90;54.50;;;;;;6200799;28;20233;-65
2022/05/22 14:41:59;;;;;;;4.00;3.70;;;25.80;54.50;;;;;;6201070;28;20316;-65
2022/05/22 14:45:12;;;;;;;5.00;4.50;;;25.90;55.20;;;;;;6200806;28;20244;-65
2022/05/22 14:48:40;;;;;;;4.63;4.23;;;26.10;55.10;;;;;;6200817;28;20214;-65
2022/05/22 14:51:50;;;;;;;4.60;4.30;;;26.40;54.60;;;;;;6200804;28;20194;-66
2022/05/22 14:54:57;;;;;;;3.80;3.50;;;26.30;54.00;;;;;;6201092;28;20304;-65
2022/05/22 14:58:25;;;;;;;4.73;4.20;;;26.40;54.00;;;;;;6201023;28;20528;-66
2022/05/22 15:01:33;;;;;;;4.53;4.13;;;26.40;53.90;;;;;;6201014;28;20257;-65
2022/05/22 15:04:41;;;;;;;4.13;3.67;;;26.40;54.10;;;;;;6200297;28;20245;-64
2022/05/22 15:07:52;;;;;;;5.50;4.13;;;26.30;53.90;;;;;;6201018;28;20316;-64
2022/05/22 15:10:57;;;;;;;4.50;4.03;;;26.30;53.70;;;;;;6200066;28;20232;-65
2022/05/22 15:14:26;;;;;;;5.00;4.60;;;26.20;53.70;;;;;;6200530;28;20232;-65
2022/05/22 15:17:33;;;;;;;4.20;3.83;;;26.20;53.70;;;;;;6203639;28;20305;-65
2022/05/22 15:20:38;;;;;;;4.90;4.50;;;26.10;54.20;;;;;;6203904;28;20556;-65
2022/05/22 15:27:13;;;;;;;7.13;4.00;;;26.00;54.20;;;;;;6152654;28;20252;-64
2022/05/22 15:30:26;;;;;;;7.10;4.23;;;26.20;53.30;;;;;;6181351;28;20257;-65
2022/05/22 15:33:37;;;;;;;5.97;4.30;;;26.10;53.50;;;;;;6180941;28;20292;-64
2022/05/22 15:36:43;;;;;;;4.03;3.40;;;26.20;53.90;;;;;;6171507;28;20238;-64
2022/05/22 15:39:46;;;;;;;5.70;4.23;;;26.10;54.20;;;;;;6180636;28;20186;-65
2022/05/22 15:43:09;;;;;;;4.23;3.90;;;26.20;54.10;;;;;;6180996;28;20206;-64
2022/05/22 15:46:20;;;;;;;4.50;4.10;;;26.10;54.20;;;;;;6181045;28;20232;-64
2022/05/22 15:52:49;;;;;;;4.27;3.97;;;25.80;54.80;;;;;;6197898;28;20678;-63
2022/05/22 15:55:52;;;;;;;4.40;4.10;;;25.80;55.20;;;;;;6203653;28;20259;-64
2022/05/22 15:58:56;;;;;;;3.97;3.60;;;25.70;55.20;;;;;;6204549;28;20225;-63
2022/05/22 16:02:02;;;;;;;8.43;4.30;;;25.70;55.30;;;;;;6202847;28;20241;-64
2022/05/22 16:05:10;;;;;;;5.53;5.03;;;25.90;55.30;;;;;;6204025;28;20754;-64
2022/05/22 16:08:14;;;;;;;4.30;3.37;;;25.70;55.60;;;;;;6202623;28;20233;-64
2022/05/22 16:11:17;;;;;;;4.30;3.90;;;25.50;56.10;;;;;;6201912;28;20229;-64
2022/05/22 16:14:20;;;;;;;6.30;4.57;;;25.30;56.30;;;;;;6202684;28;20681;-64
2022/05/22 16:17:28;;;;;;;5.60;5.10;;;25.40;56.50;;;;;;6202567;28;20331;-64
2022/05/22 16:20:31;;;;;;;11.27;7.30;;;25.60;56.50;;;;;;6202953;28;20295;-63
2022/05/22 16:23:35;;;;;;;7.73;3.70;;;25.70;56.50;;;;;;6204096;28;20248;-65
2022/05/22 16:26:39;;;;;;;4.47;4.07;;;25.70;55.50;;;;;;6203407;28;20245;-64
2022/05/22 16:29:42;;;;;;;5.70;4.80;;;25.50;56.00;;;;;;6203558;28;20748;-64
2022/05/22 16:32:47;;;;;;;4.10;3.80;;;25.60;55.80;;;;;;6203879;28;20230;-63
2022/05/22 16:35:51;;;;;;;5.93;4.30;;;25.80;55.90;;;;;;6202982;28;20276;-65
2022/05/22 16:38:54;;;;;;;5.87;3.97;;;25.80;55.40;;;;;;6203679;28;20229;-63
2022/05/22 16:42:05;;;;;;;4.43;4.03;;;25.60;55.80;;;;;;6199184;28;20228;-64
2022/05/22 16:45:08;;;;;;;3.90;3.50;;;25.50;55.60;;;;;;6203213;28;20673;-64
2022/05/22 16:55:00;;;;;;;3.77;3.37;;;25.10;56.30;;;;;;6203146;28;20251;-64
2022/05/22 16:58:09;;;;;;;5.50;3.40;;;24.90;57.00;;;;;;6203758;28;20262;-64